Time;durP1;ratioP1;P1;durP2;ratioP2;P2;SDS_P1;SDS_P2;PMS_P1;PMS_P2;Temp;Humidity;BMP_temperature;BMP_pressure;BME280_temperature;BME280_humidity;BME280_pressure;Samples;Min_cycle;Max_cycle;Signal;HPM_P1;HPM_P2
2022/07/05 00:01:55;;;;;;;4.60;2.78;;;;;;;21.50;78.10;99757.28;6211534;23;20016;-84
2022/07/05 00:04:21;;;;;;;4.03;2.70;;;;;;;21.61;77.47;99751.56;6211651;23;20386;-84
2022/07/05 00:09:31;;;;;;;3.70;2.80;;;;;;;21.53;77.75;99744.16;6212283;23;20067;-84
2022/07/05 00:11:56;;;;;;;4.18;2.80;;;;;;;21.48;77.71;99731.63;6185177;23;20020;-84
2022/07/05 00:14:22;;;;;;;3.25;2.65;;;;;;;21.53;77.39;99713.13;6212044;23;20019;-84
2022/07/05 00:16:49;;;;;;;5.68;2.97;;;;;;;21.53;77.07;99722.38;6212082;23;20544;-83
2022/07/05 00:19:15;;;;;;;3.47;2.72;;;;;;;21.53;76.65;99718.78;6213989;23;20086;-84
2022/07/05 00:21:40;;;;;;;3.78;2.95;;;;;;;21.58;75.86;99723.63;6213746;23;20008;-84
2022/07/05 00:24:06;;;;;;;4.00;2.78;;;;;;;21.64;75.34;99722.31;6214038;23;20001;-83
2022/07/05 00:26:31;;;;;;;3.97;2.85;;;;;;;21.72;74.64;99723.28;6213344;23;20020;-83
2022/07/05 00:28:57;;;;;;;5.28;2.78;;;;;;;21.77;74.03;99728.16;6213885;23;20419;-84
2022/07/05 00:31:23;;;;;;;4.72;2.70;;;;;;;21.86;73.77;99729.91;6186653;23;20052;-83
2022/07/05 00:33:48;;;;;;;3.40;2.80;;;;;;;21.88;73.16;99722.44;6213823;23;20009;-84
2022/07/05 00:36:14;;;;;;;3.47;2.80;;;;;;;21.88;72.84;99730.91;6213639;23;20023;-83
2022/07/05 00:38:39;;;;;;;3.95;2.70;;;;;;;22.03;71.68;99747.53;6213940;23;20017;-83
2022/07/05 00:41:05;;;;;;;4.15;2.90;;;;;;;22.08;71.58;99755.19;6213126;23;20024;-83
2022/07/05 00:43:30;;;;;;;3.67;2.60;;;;;;;22.07;72.44;99761.38;6213541;23;20004;-84
2022/07/05 00:45:56;;;;;;;4.00;2.60;;;;;;;21.85;74.46;99765.84;6185937;23;20023;-84
2022/07/05 00:48:22;;;;;;;3.75;2.90;;;;;;;21.58;77.46;99792.13;6213321;23;20019;-84
2022/07/05 00:50:48;;;;;;;3.50;2.90;;;;;;;21.58;77.82;99789.31;6186810;23;20008;-83
2022/07/05 00:53:13;;;;;;;4.57;3.10;;;;;;;21.44;79.18;99781.13;6213679;23;20036;-83
2022/07/05 00:55:40;;;;;;;5.13;3.00;;;;;;;21.26;81.23;99760.69;6187381;23;20031;-83
2022/07/05 00:58:06;;;;;;;5.50;3.05;;;;;;;21.20;82.54;99748.66;6213572;23;20083;-84
2022/07/05 01:03:14;;;;;;;3.53;3.10;;;;;;;20.87;84.52;99745.88;6176169;23;20021;-89
2022/07/05 01:05:39;;;;;;;4.70;3.20;;;;;;;20.83;84.61;99734.09;6133355;23;20024;-88
2022/07/05 01:08:06;;;;;;;4.45;3.00;;;;;;;20.90;84.32;99747.69;6110114;23;20044;-88
2022/07/05 01:10:31;;;;;;;3.75;3.05;;;;;;;20.93;84.12;99755.09;6110175;23;20021;-90
2022/07/05 01:12:57;;;;;;;4.07;3.30;;;;;;;20.98;83.96;99774.06;6108191;23;20312;-89
2022/07/05 01:15:23;;;;;;;4.18;3.50;;;;;;;21.05;84.01;99781.22;6109288;23;20025;-90
2022/07/05 01:17:49;;;;;;;4.55;3.55;;;;;;;21.01;83.95;99770.22;6109142;23;20056;-94
2022/07/05 01:20:15;;;;;;;4.32;3.22;;;;;;;21.04;83.81;99772.00;6134232;23;20016;-89
2022/07/05 01:22:55;;;;;;;4.80;3.33;;;;;;;21.03;83.73;99776.09;6109412;23;20012;-90
2022/07/05 01:25:22;;;;;;;3.97;3.40;;;;;;;21.15;84.04;99793.81;6109328;23;20059;-89
2022/07/05 01:27:49;;;;;;;6.28;3.40;;;;;;;21.03;84.52;99776.09;6110061;23;20009;-90
2022/07/05 01:30:15;;;;;;;4.82;3.53;;;;;;;21.09;84.24;99779.69;6110516;23;20009;-89
2022/07/05 04:55:08;;;;;;;8.05;6.07;;;;;;;19.10;100.00;99863.03;6214422;23;20032;-80
2022/07/05 04:57:40;;;;;;;7.82;6.22;;;;;;;19.16;100.00;99862.31;6137140;23;20019;-81
2022/07/05 05:00:10;;;;;;;8.10;5.80;;;;;;;19.06;100.00;99853.28;6160864;23;20021;-82
2022/07/05 05:02:36;;;;;;;7.65;6.35;;;;;;;18.97;100.00;99856.25;6162110;23;20004;-82
2022/07/05 05:05:03;;;;;;;9.13;6.47;;;;;;;18.84;100.00;99836.25;6162869;23;20087;-81
2022/07/05 05:07:29;;;;;;;7.55;6.20;;;;;;;18.77;100.00;99834.66;6186346;23;20353;-81
2022/07/05 05:09:54;;;;;;;10.38;7.45;;;;;;;18.93;100.00;99819.19;6186848;23;20020;-81
2022/07/05 05:12:20;;;;;;;7.82;7.03;;;;;;;18.89;100.00;99813.03;6187843;23;20004;-81
2022/07/05 05:14:45;;;;;;;8.00;6.43;;;;;;;18.87;100.00;99807.13;6184751;23;20523;-81
2022/07/05 05:17:11;;;;;;;7.80;6.60;;;;;;;18.97;100.00;99805.66;6186900;23;20016;-82
2022/07/05 05:19:36;;;;;;;7.97;6.65;;;;;;;18.97;100.00;99805.66;6213893;23;20009;-81
2022/07/05 05:22:02;;;;;;;8.77;7.50;;;;;;;18.83;100.00;99800.97;6187241;23;20013;-81
2022/07/05 05:24:28;;;;;;;8.38;6.30;;;;;;;18.84;100.00;99792.06;6162430;23;20005;-81
2022/07/05 05:26:53;;;;;;;8.57;5.88;;;;;;;18.87;100.00;99790.28;6187506;23;20009;-80
2022/07/05 05:29:20;;;;;;;7.60;6.28;;;;;;;18.83;100.00;99800.97;6187429;23;20031;-81
2022/07/05 05:31:46;;;;;;;7.45;6.22;;;;;;;18.81;100.00;99801.47;6162689;23;20013;-82
2022/07/05 05:34:12;;;;;;;6.82;5.88;;;;;;;18.86;100.00;99806.38;6187464;23;20005;-81
2022/07/05 05:36:37;;;;;;;8.35;6.70;;;;;;;18.88;100.00;99808.69;6163004;23;20069;-81
2022/07/05 05:39:03;;;;;;;7.75;6.10;;;;;;;18.86;100.00;99805.59;6187256;23;20000;-81
2022/07/05 05:41:28;;;;;;;9.98;7.00;;;;;;;18.91;100.00;99821.72;6214192;23;20143;-81
2022/07/05 05:43:54;;;;;;;7.57;6.60;;;;;;;18.93;100.00;99825.56;6161600;23;20047;-81
2022/07/05 05:46:20;;;;;;;7.20;6.10;;;;;;;18.97;100.00;99822.53;6162583;23;20040;-81
2022/07/05 05:48:45;;;;;;;7.28;6.57;;;;;;;19.02;100.00;99824.63;6162266;23;20440;-81
2022/07/05 05:51:11;;;;;;;8.35;6.53;;;;;;;18.97;100.00;99842.22;6187077;23;20437;-81
2022/07/05 05:53:36;;;;;;;6.88;5.68;;;;;;;18.99;100.00;99865.75;6112897;23;20071;-81
2022/07/05 05:56:02;;;;;;;6.95;5.75;;;;;;;19.01;100.00;99863.19;6161322;23;20012;-81
2022/07/05 05:58:27;;;;;;;8.43;6.35;;;;;;;18.86;100.00;99870.22;6186516;23;20011;-82
2022/07/05 06:00:53;;;;;;;6.75;5.30;;;;;;;19.01;100.00;99887.72;6137762;23;20009;-82
2022/07/05 06:03:20;;;;;;;7.68;6.03;;;;;;;19.05;100.00;99879.84;6159302;23;20441;-81
2022/07/05 06:05:46;;;;;;;6.97;5.25;;;;;;;19.05;100.00;99879.84;6136306;23;20445;-83
2022/07/05 06:08:12;;;;;;;7.90;5.90;;;;;;;19.05;100.00;99879.84;6161620;23;20013;-81
2022/07/05 06:10:38;;;;;;;6.18;5.50;;;;;;;19.15;100.00;99898.06;6187357;23;20016;-85
2022/07/05 06:13:06;;;;;;;6.55;5.30;;;;;;;19.08;100.00;99898.53;6162240;23;20044;-85
2022/07/05 06:15:32;;;;;;;8.48;5.78;;;;;;;19.19;100.00;99907.06;6144638;23;20067;-87
2022/07/05 06:17:58;;;;;;;7.97;6.30;;;;;;;19.18;100.00;99910.34;6142474;23;20023;-85
2022/07/05 06:20:26;;;;;;;7.68;6.03;;;;;;;19.23;100.00;99913.22;6141809;23;20020;-85
2022/07/05 06:22:52;;;;;;;8.43;6.22;;;;;;;19.20;100.00;99914.22;6167779;23;20056;-85
2022/07/05 06:25:18;;;;;;;7.25;5.97;;;;;;;19.45;100.00;99930.28;6143541;23;20349;-86
2022/07/05 06:27:46;;;;;;;9.30;7.28;;;;;;;19.54;100.00;99927.28;6190704;23;20017;-85
2022/07/05 06:30:15;;;;;;;7.35;5.78;;;;;;;19.66;100.00;99938.59;6163646;23;20480;-85
2022/07/05 06:32:40;;;;;;;6.63;5.57;;;;;;;19.26;100.00;99951.59;6164900;23;20391;-85
2022/07/05 06:35:07;;;;;;;7.85;6.10;;;;;;;18.99;100.00;99955.69;6161376;23;20087;-84
2022/07/05 06:38:02;;;;;;;6.95;6.07;;;;;;;19.34;100.00;99952.66;6137894;23;20102;-84
2022/07/05 06:40:32;;;;;;;10.77;7.13;;;;;;;19.48;100.00;99934.91;6158565;23;20095;-83
2022/07/05 06:42:59;;;;;;;8.02;6.35;;;;;;;19.48;100.00;99923.66;6136099;23;20016;-84
2022/07/05 06:45:32;;;;;;;9.02;6.22;;;;;;;19.27;100.00;99908.13;6168096;23;20013;-84
2022/07/05 06:48:02;;;;;;;8.45;5.97;;;;;;;19.10;100.00;99926.91;6139383;23;20096;-84
2022/07/05 06:50:30;;;;;;;7.82;6.57;;;;;;;19.05;100.00;99931.22;6141371;23;20389;-84
2022/07/05 06:52:56;;;;;;;7.70;6.25;;;;;;;18.99;100.00;99943.69;6161064;23;20101;-85
2022/07/05 06:55:22;;;;;;;7.97;6.15;;;;;;;19.07;100.00;99934.31;6139006;23;20054;-85
2022/07/05 06:57:48;;;;;;;8.07;6.85;;;;;;;19.03;100.00;99944.22;6160776;23;20094;-85
2022/07/05 07:00:14;;;;;;;8.77;6.88;;;;;;;18.95;100.00;99938.28;6159663;23;20102;-85
2022/07/05 07:02:41;;;;;;;8.80;7.05;;;;;;;18.99;100.00;99940.88;6159951;23;20013;-85
2022/07/05 07:05:07;;;;;;;7.88;7.07;;;;;;;18.89;100.00;99939.47;6134896;23;20027;-85
2022/07/05 07:10:18;;;;;;;10.70;7.18;;;;;;;19.14;100.00;99938.69;6162075;23;20027;-85
2022/07/05 07:12:43;;;;;;;10.18;7.43;;;;;;;19.23;100.00;99952.59;6132986;23;20016;-85
2022/07/05 07:15:09;;;;;;;7.45;6.65;;;;;;;19.21;100.00;99938.25;6133515;23;20076;-85
2022/07/05 07:17:35;;;;;;;7.47;6.40;;;;;;;19.19;100.00;99940.03;6160012;23;20023;-86
2022/07/05 07:20:00;;;;;;;8.77;7.15;;;;;;;19.06;100.00;99932.75;6159698;23;20523;-85
2022/07/05 07:22:26;;;;;;;7.78;6.50;;;;;;;19.07;100.00;99936.34;6165193;23;20421;-87
2022/07/05 07:24:56;;;;;;;6.85;6.00;;;;;;;19.11;100.00;99945.31;6139939;23;20377;-86
2022/07/05 07:27:21;;;;;;;7.00;6.03;;;;;;;19.01;100.00;99929.88;6164738;23;20013;-86
2022/07/05 07:29:53;;;;;;;10.05;6.32;;;;;;;19.24;100.00;99944.94;6153916;23;20017;-86
2022/07/05 07:32:19;;;;;;;8.07;6.60;;;;;;;19.18;100.00;99939.25;6141999;23;20176;-86
2022/07/05 07:34:45;;;;;;;7.05;6.22;;;;;;;19.29;100.00;99953.38;6162082;23;20136;-85
2022/07/05 07:37:13;;;;;;;7.22;5.50;;;;;;;19.10;100.00;99946.59;6138055;23;20040;-85
2022/07/05 07:39:39;;;;;;;6.65;5.00;;;;;;;19.14;100.00;99961.19;6137843;23;20021;-84
2022/07/05 07:42:05;;;;;;;7.50;5.90;;;;;;;19.08;100.00;99968.81;6184287;23;20356;-83
2022/07/05 07:44:31;;;;;;;8.40;5.28;;;;;;;19.07;100.00;99961.66;6135348;23;20001;-83
2022/07/05 07:46:56;;;;;;;8.32;6.18;;;;;;;19.15;100.00;99971.19;6159052;23;20016;-83
2022/07/05 07:49:22;;;;;;;7.38;6.50;;;;;;;19.11;100.00;99970.63;6160510;23;20590;-84
2022/07/05 07:51:47;;;;;;;7.97;6.35;;;;;;;19.10;100.00;99955.03;6161254;23;20016;-84
2022/07/05 07:54:13;;;;;;;7.93;6.93;;;;;;;19.09;100.00;99970.34;6160826;23;20067;-83
2022/07/05 07:56:39;;;;;;;8.55;7.22;;;;;;;19.04;100.00;99957.03;6136123;23;20013;-84
2022/07/05 07:59:04;;;;;;;8.13;6.97;;;;;;;19.09;100.00;99964.72;6137551;23;20012;-84
2022/07/05 08:01:31;;;;;;;7.20;6.47;;;;;;;19.12;100.00;99965.78;6163401;23;20457;-84
2022/07/05 08:03:56;;;;;;;9.05;7.45;;;;;;;19.20;100.00;99964.84;6187874;23;20495;-83
2022/07/05 08:06:22;;;;;;;7.43;6.47;;;;;;;19.20;100.00;99978.13;6188564;23;20016;-84
2022/07/05 08:08:47;;;;;;;9.43;6.35;;;;;;;19.11;100.00;99962.19;6163628;23;20035;-83
2022/07/05 08:11:13;;;;;;;7.95;6.80;;;;;;;19.17;100.00;99974.25;6188107;23;20524;-83
2022/07/05 08:13:40;;;;;;;8.30;6.57;;;;;;;19.13;100.00;99976.50;6162741;23;20058;-84
2022/07/05 08:16:06;;;;;;;9.52;6.90;;;;;;;19.16;100.00;99972.72;6184402;23;20036;-83
2022/07/05 08:21:31;;;;;;;7.85;7.05;;;;;;;19.12;100.00;99972.19;6191342;23;20016;-83
2022/07/05 08:24:15;;;;;;;8.75;7.22;;;;;;;19.18;100.00;99978.63;6165470;23;20092;-84
2022/07/05 08:26:41;;;;;;;8.07;7.22;;;;;;;19.18;100.00;99983.47;6187330;23;20162;-84
2022/07/05 08:29:11;;;;;;;8.70;7.82;;;;;;;19.24;100.00;99985.06;6187212;23;20354;-84
2022/07/05 08:31:46;;;;;;;8.52;7.72;;;;;;;19.28;100.00;99970.78;6188224;23;20013;-84
2022/07/05 08:34:12;;;;;;;9.60;7.40;;;;;;;19.34;100.00;99972.34;6137749;23;20053;-84
2022/07/05 08:36:39;;;;;;;7.93;7.13;;;;;;;19.33;100.00;99979.25;6163268;23;20013;-85
2022/07/05 08:39:05;;;;;;;8.73;7.20;;;;;;;19.27;100.00;99983.28;6162066;23;20008;-85
2022/07/05 08:41:32;;;;;;;7.60;6.90;;;;;;;19.26;100.00;99978.94;6138104;23;20059;-85
2022/07/05 08:44:00;;;;;;;7.75;6.95;;;;;;;19.37;100.00;99991.03;6162897;23;20012;-83
2022/07/05 08:46:33;;;;;;;8.60;7.60;;;;;;;19.47;100.00;99989.63;6164418;23;20013;-85
2022/07/05 08:49:00;;;;;;;7.38;6.63;;;;;;;19.48;100.00;99982.75;6189121;23;20024;-85
2022/07/05 08:51:27;;;;;;;7.60;6.53;;;;;;;19.57;100.00;99997.91;6138268;23;20012;-85
2022/07/05 08:53:55;;;;;;;8.02;7.22;;;;;;;19.60;100.00;99985.63;6138384;23;20016;-85
2022/07/05 08:56:20;;;;;;;7.97;7.07;;;;;;;19.77;100.00;99997.78;6187982;23;20087;-85
2022/07/05 08:58:46;;;;;;;6.65;5.95;;;;;;;19.88;100.00;99997.84;6187332;23;20176;-85
2022/07/05 09:01:13;;;;;;;7.57;6.53;;;;;;;19.82;100.00;100002.66;6138155;23;20024;-85
2022/07/05 09:03:42;;;;;;;7.80;7.10;;;;;;;19.94;100.00;99993.03;6138442;23;20016;-85
2022/07/05 09:06:10;;;;;;;7.65;6.30;;;;;;;19.93;100.00;99997.13;6162666;23;20009;-85
2022/07/05 09:08:39;;;;;;;7.22;6.53;;;;;;;20.02;100.00;99994.09;6187551;23;20142;-85
2022/07/05 09:11:11;;;;;;;10.45;7.18;;;;;;;20.02;100.00;99988.47;6213800;23;20001;-85
2022/07/05 09:13:41;;;;;;;8.50;6.57;;;;;;;19.99;100.00;99997.91;6187672;23;20427;-84
2022/07/05 09:16:07;;;;;;;9.93;6.60;;;;;;;19.91;100.00;100008.09;6137463;23;20043;-86
2022/07/05 09:18:40;;;;;;;7.55;6.75;;;;;;;19.94;100.00;100009.91;6161390;23;20016;-86
2022/07/05 09:21:22;;;;;;;7.93;6.35;;;;;;;19.97;100.00;100006.13;6162999;23;20369;-85
2022/07/05 09:23:55;;;;;;;6.20;5.60;;;;;;;19.81;100.00;100001.16;6188129;23;20356;-85
2022/07/05 09:26:25;;;;;;;6.97;6.20;;;;;;;19.77;100.00;99998.56;6187520;23;20396;-85
2022/07/05 09:28:55;;;;;;;7.07;6.38;;;;;;;19.88;100.00;100004.25;6162207;23;20381;-86
2022/07/05 09:31:30;;;;;;;7.80;6.13;;;;;;;19.94;100.00;99998.66;6138989;23;20020;-86
2022/07/05 09:34:04;;;;;;;7.55;6.63;;;;;;;19.99;100.00;100007.13;6160747;23;20036;-84
2022/07/05 09:37:04;;;;;;;6.65;5.68;;;;;;;20.08;100.00;99997.72;6162063;23;20472;-85
2022/07/05 09:39:29;;;;;;;5.95;5.35;;;;;;;20.12;100.00;99995.44;6163201;23;20017;-85
2022/07/05 09:42:22;;;;;;;7.45;6.68;;;;;;;20.24;100.00;100007.53;6216877;23;20007;-84
2022/07/05 09:44:53;;;;;;;6.95;5.47;;;;;;;20.22;100.00;100001.66;6190113;23;20008;-84
2022/07/05 09:47:21;;;;;;;6.93;5.40;;;;;;;20.08;100.00;100003.34;6140393;23;20024;-84
2022/07/05 09:49:49;;;;;;;6.68;6.05;;;;;;;20.05;100.00;99995.16;6167372;23;20084;-84
2022/07/05 09:52:28;;;;;;;7.90;6.05;;;;;;;19.96;100.00;100004.56;6166545;23;20043;-84
2022/07/05 09:55:04;;;;;;;8.57;6.75;;;;;;;20.23;100.00;100003.94;6189235;23;20083;-85
2022/07/05 09:57:30;;;;;;;6.30;5.70;;;;;;;20.19;100.00;100003.41;6165998;23;20008;-85
2022/07/05 10:00:04;;;;;;;8.50;5.53;;;;;;;20.18;100.00;99995.47;6137629;23;20067;-85
2022/07/05 10:02:42;;;;;;;7.45;5.57;;;;;;;20.18;100.00;100007.50;6188122;23;20353;-84
2022/07/05 10:05:09;;;;;;;9.07;6.35;;;;;;;20.16;100.00;100004.44;6164391;23;20012;-85
2022/07/05 10:07:36;;;;;;;6.72;6.03;;;;;;;20.33;100.00;100005.31;6163262;23;20012;-85
2022/07/05 10:10:05;;;;;;;7.78;5.70;;;;;;;20.24;100.00;100002.69;6187714;23;20012;-84
2022/07/05 10:12:31;;;;;;;7.28;6.10;;;;;;;20.33;100.00;100002.50;6165317;23;20021;-85
2022/07/05 10:14:58;;;;;;;7.35;6.55;;;;;;;20.36;100.00;100001.47;6140700;23;20459;-85
2022/07/05 10:17:25;;;;;;;9.88;7.07;;;;;;;20.46;100.00;99997.16;6164306;23;20013;-85
2022/07/05 10:19:53;;;;;;;7.20;6.00;;;;;;;20.42;100.00;99993.81;6189387;23;20005;-85
2022/07/05 10:22:19;;;;;;;7.13;5.97;;;;;;;20.31;100.00;99999.41;6163513;23;20507;-85
2022/07/05 10:24:45;;;;;;;7.60;5.47;;;;;;;20.31;100.00;100005.03;6163930;23;20004;-86
2022/07/05 10:27:12;;;;;;;8.25;6.53;;;;;;;20.23;100.00;99997.53;6161941;23;20112;-84
2022/07/05 10:29:38;;;;;;;8.70;6.93;;;;;;;20.27;100.00;99998.84;6162224;23;20025;-85
2022/07/05 10:32:07;;;;;;;9.10;6.85;;;;;;;20.28;100.00;100005.25;6189027;23;20020;-85
2022/07/05 10:34:33;;;;;;;9.57;6.65;;;;;;;20.33;100.00;99996.88;6188475;23;20040;-85
2022/07/05 10:36:58;;;;;;;10.05;7.05;;;;;;;20.28;100.00;99993.97;6136693;23;20013;-87
2022/07/05 10:39:25;;;;;;;9.27;8.35;;;;;;;20.50;100.00;99996.16;6137464;23;20001;-86
2022/07/05 10:41:52;;;;;;;7.15;6.43;;;;;;;20.46;100.00;99999.97;6137828;23;20111;-85
2022/07/05 10:44:30;;;;;;;7.93;6.25;;;;;;;20.38;100.00;99998.91;6186158;23;20013;-85
2022/07/05 10:47:12;;;;;;;8.48;6.20;;;;;;;20.21;100.00;100003.69;6161530;23;20364;-85
2022/07/05 10:49:38;;;;;;;7.20;6.43;;;;;;;20.27;100.00;99993.22;6159637;23;20008;-85
2022/07/05 10:52:23;;;;;;;6.53;5.82;;;;;;;20.31;100.00;99993.78;6160559;23;20437;-85
2022/07/05 10:55:18;;;;;;;7.63;6.40;;;;;;;20.64;100.00;99986.72;6136948;23;20024;-87
2022/07/05 10:57:43;;;;;;;6.55;5.70;;;;;;;20.91;100.00;99988.84;6137002;23;20115;-85
2022/07/05 11:00:10;;;;;;;6.18;5.57;;;;;;;21.20;100.00;99994.06;6160506;23;20024;-85
2022/07/05 11:02:37;;;;;;;6.57;5.07;;;;;;;21.20;100.00;99994.06;6136770;23;20013;-85
2022/07/05 11:05:03;;;;;;;5.72;4.93;;;;;;;21.40;100.00;99984.56;6136375;23;20051;-85
2022/07/05 11:08:07;;;;;;;7.45;5.57;;;;;;;21.60;100.00;99992.78;6161708;23;20044;-85
2022/07/05 11:10:32;;;;;;;6.13;4.90;;;;;;;21.59;100.00;99990.47;6015160;23;20029;-85
2022/07/05 11:12:58;;;;;;;5.72;5.00;;;;;;;21.53;100.00;99986.88;6038112;23;20395;-84
2022/07/05 11:15:24;;;;;;;5.50;4.68;;;;;;;21.45;100.00;99985.84;6106889;23;20004;-85
2022/07/05 11:17:49;;;;;;;5.85;4.70;;;;;;;21.80;100.00;99988.91;6136852;23;20444;-85
2022/07/05 11:20:21;;;;;;;6.00;4.57;;;;;;;21.85;100.00;99985.31;6161052;23;20068;-86
2022/07/05 11:23:07;;;;;;;6.05;4.68;;;;;;;21.98;100.00;99985.56;6137735;23;20267;-87
2022/07/05 11:25:35;;;;;;;5.50;4.80;;;;;;;21.98;100.00;99981.97;6136502;23;20020;-86
2022/07/05 11:28:05;;;;;;;4.97;4.47;;;;;;;22.07;100.00;99984.53;6161095;23;20023;-86
2022/07/05 11:30:44;;;;;;;6.13;4.40;;;;;;;22.12;100.00;99987.31;6136518;23;20514;-86
2022/07/05 11:33:26;;;;;;;5.55;3.97;;;;;;;22.78;100.00;99983.47;6136141;23;20017;-86
2022/07/05 11:35:51;;;;;;;4.38;3.53;;;;;;;23.02;100.00;99994.13;6160688;23;20040;-85
2022/07/05 11:38:17;;;;;;;4.40;4.00;;;;;;;23.16;100.00;99975.25;6135978;23;20008;-85
2022/07/05 11:40:43;;;;;;;5.63;4.10;;;;;;;23.25;100.00;99975.69;6135944;23;20016;-86
2022/07/05 11:43:09;;;;;;;5.70;4.15;;;;;;;23.11;100.00;99984.56;6134977;23;20450;-84
2022/07/05 11:45:35;;;;;;;4.40;3.58;;;;;;;23.21;100.00;99983.69;6185247;23;20017;-86
2022/07/05 11:48:01;;;;;;;4.63;3.85;;;;;;;23.53;100.00;99986.84;6160309;23;20020;-86
2022/07/05 11:50:29;;;;;;;4.10;3.70;;;;;;;23.66;100.00;99980.53;6135729;23;20039;-85
2022/07/05 11:52:55;;;;;;;4.40;3.72;;;;;;;23.84;98.21;99982.69;6185415;23;20016;-87
2022/07/05 11:55:20;;;;;;;3.50;3.10;;;;;;;24.20;100.00;99968.41;6160241;23;20456;-86
2022/07/05 11:57:51;;;;;;;3.92;3.35;;;;;;;24.85;99.34;99968.88;6161125;23;20036;-86
2022/07/05 12:00:27;;;;;;;5.55;3.78;;;;;;;24.83;95.84;99962.91;6135223;23;20099;-86
2022/07/05 12:02:53;;;;;;;4.97;3.40;;;;;;;24.89;94.26;99960.03;6160662;23;20499;-86
2022/07/05 12:05:19;;;;;;;4.25;3.50;;;;;;;24.97;94.24;99967.41;6160150;23;20000;-86
2022/07/05 12:07:51;;;;;;;6.25;3.80;;;;;;;24.83;89.10;99967.84;6159712;23;20013;-86
2022/07/05 12:13:06;;;;;;;5.50;3.40;;;;;;;24.63;89.08;99982.56;6165110;23;20025;-86
2022/07/05 12:15:32;;;;;;;3.78;3.10;;;;;;;24.42;92.23;99973.81;6162549;23;20066;-86
2022/07/05 12:18:03;;;;;;;3.20;2.90;;;;;;;24.28;92.76;99975.00;6137778;23;20004;-86
2022/07/05 12:20:29;;;;;;;4.90;3.35;;;;;;;24.21;93.21;99972.78;6137991;23;20099;-86
2022/07/05 12:22:55;;;;;;;3.88;3.10;;;;;;;24.14;94.32;99974.91;6162709;23;20012;-86
2022/07/05 12:25:23;;;;;;;6.03;2.92;;;;;;;24.43;93.31;99975.31;6137415;23;20071;-86
2022/07/05 12:27:51;;;;;;;3.40;2.85;;;;;;;24.54;93.77;99975.22;6137698;23;20119;-86
2022/07/05 12:30:17;;;;;;;4.38;2.85;;;;;;;24.37;92.33;99969.75;6136842;23;20356;-85
2022/07/05 12:33:03;;;;;;;5.28;3.00;;;;;;;24.94;91.50;99979.84;6137150;23;20021;-86
2022/07/05 12:35:50;;;;;;;4.78;3.05;;;;;;;25.28;85.94;99977.22;6162105;23;20330;-86
2022/07/05 12:38:18;;;;;;;2.75;2.40;;;;;;;25.40;83.93;99981.41;6162012;23;20039;-84
2022/07/05 12:41:04;;;;;;;2.60;2.33;;;;;;;24.45;86.66;99984.09;6161298;23;20044;-85
2022/07/05 12:43:31;;;;;;;3.15;2.70;;;;;;;24.14;90.00;99979.78;6161340;23;20087;-85
2022/07/05 12:46:07;;;;;;;5.18;3.03;;;;;;;24.09;91.39;99989.13;6161915;23;20005;-85
2022/07/05 12:48:37;;;;;;;3.20;2.90;;;;;;;23.85;92.79;99989.88;6137206;23;20047;-85
2022/07/05 12:51:03;;;;;;;3.97;2.80;;;;;;;23.38;98.77;99994.13;6136867;23;20013;-85
2022/07/05 12:59:00;;;;;;;4.78;3.25;;;;;;;22.13;100.00;100000.16;6165919;23;20027;-86
2022/07/05 13:01:31;;;;;;;5.57;3.40;;;;;;;21.92;100.00;100013.03;6137892;23;20467;-86
2022/07/05 13:04:03;;;;;;;5.15;4.00;;;;;;;21.61;100.00;100007.66;6137941;23;20039;-86
2022/07/05 13:06:45;;;;;;;5.10;3.80;;;;;;;21.36;100.00;100001.75;6137950;23;20012;-86
2022/07/05 13:09:16;;;;;;;6.35;4.22;;;;;;;21.37;100.00;100000.47;6137227;23;20012;-85
2022/07/05 13:11:43;;;;;;;4.60;4.15;;;;;;;21.67;100.00;100008.44;6187368;23;20105;-87
2022/07/05 13:14:10;;;;;;;5.03;3.78;;;;;;;21.89;100.00;99997.09;6139285;23;20008;-89
2022/07/05 13:16:37;;;;;;;5.28;4.13;;;;;;;21.71;100.00;99989.97;6139279;23;20457;-89
2022/07/05 13:19:08;;;;;;;4.13;3.70;;;;;;;21.70;100.00;99976.34;6136835;23;20480;-85
2022/07/05 13:21:33;;;;;;;6.15;4.20;;;;;;;21.92;100.00;99984.78;6162622;23;20017;-88
2022/07/05 13:23:59;;;;;;;7.50;4.20;;;;;;;22.09;100.00;99991.19;6137803;23;20000;-88
2022/07/05 13:26:24;;;;;;;4.40;3.67;;;;;;;22.23;100.00;99986.53;6161853;23;20464;-89
2022/07/05 13:28:50;;;;;;;4.28;3.88;;;;;;;22.94;100.00;99975.41;6162769;23;20396;-87
2022/07/05 13:31:15;;;;;;;3.75;3.35;;;;;;;23.32;100.00;99987.75;6137868;23;20099;-87
2022/07/05 13:33:43;;;;;;;3.65;3.30;;;;;;;23.28;100.00;99970.28;6162183;23;20012;-87
2022/07/05 13:36:09;;;;;;;3.90;3.33;;;;;;;23.22;100.00;99981.63;6161069;23;20353;-88
2022/07/05 13:38:34;;;;;;;3.83;3.38;;;;;;;23.17;100.00;99977.56;6162182;23;20008;-88
2022/07/05 13:41:00;;;;;;;5.18;3.35;;;;;;;23.24;100.00;99967.75;6162821;23;20028;-87
2022/07/05 13:43:25;;;;;;;7.20;3.58;;;;;;;23.17;100.00;99962.66;6137253;23;20035;-89
2022/07/05 13:45:51;;;;;;;3.50;3.20;;;;;;;23.24;100.00;99960.03;6137650;23;20044;-83
2022/07/05 13:48:16;;;;;;;4.63;2.95;;;;;;;23.15;100.00;99946.19;6162953;23;20445;-85
2022/07/05 13:50:42;;;;;;;3.17;2.88;;;;;;;23.29;100.00;99947.13;6163329;23;20479;-91
2022/07/05 13:53:07;;;;;;;2.60;2.40;;;;;;;23.48;100.00;99941.56;6140683;23;20009;-88
2022/07/05 13:55:33;;;;;;;2.97;2.60;;;;;;;23.57;100.00;99941.25;6162807;23;20013;-86
2022/07/05 13:57:59;;;;;;;3.72;3.28;;;;;;;23.67;100.00;99936.75;6184842;23;20162;-87
2022/07/05 14:00:34;;;;;;;3.22;2.33;;;;;;;24.04;100.00;99936.88;6185929;23;20028;-87
2022/07/05 14:02:59;;;;;;;2.70;2.40;;;;;;;24.01;96.53;99937.94;6186403;23;20013;-89
2022/07/05 14:05:25;;;;;;;2.55;2.30;;;;;;;24.10;98.74;99929.06;6186241;23;20000;-85
2022/07/05 14:07:50;;;;;;;4.30;2.40;;;;;;;24.01;96.03;99925.84;6185640;23;20009;-86
2022/07/05 14:10:16;;;;;;;3.38;2.30;;;;;;;24.01;96.42;99929.44;6188998;23;20062;-87
2022/07/05 14:12:42;;;;;;;3.58;2.60;;;;;;;24.19;96.47;99927.19;6162040;23;20023;-87
2022/07/05 14:15:08;;;;;;;3.85;2.80;;;;;;;24.40;93.62;99926.16;6160232;23;20310;-85
2022/07/05 14:17:33;;;;;;;3.67;2.70;;;;;;;24.40;93.47;99931.03;6161285;23;20043;-86
2022/07/05 14:19:59;;;;;;;3.15;2.50;;;;;;;24.55;90.57;99911.50;6160803;23;20012;-85
2022/07/05 14:22:24;;;;;;;2.90;2.38;;;;;;;24.65;88.44;99904.16;6183868;23;20172;-88
2022/07/05 14:24:50;;;;;;;2.65;2.15;;;;;;;24.69;83.04;99901.78;6134754;23;20094;-84
2022/07/05 14:27:16;;;;;;;3.83;2.78;;;;;;;24.66;89.17;99897.19;6134423;23;20011;-85
2022/07/05 14:29:41;;;;;;;2.88;2.40;;;;;;;24.35;85.07;99889.34;6134969;23;20020;-86
2022/07/05 14:32:07;;;;;;;2.70;2.10;;;;;;;24.61;88.34;99881.78;6159116;23;20017;-89
2022/07/05 14:34:33;;;;;;;3.05;1.95;;;;;;;24.84;82.51;99879.34;6159473;23;20004;-87
2022/07/05 14:36:59;;;;;;;2.95;2.40;;;;;;;24.75;83.14;99882.59;6159352;23;20107;-85
2022/07/05 14:39:25;;;;;;;3.72;2.60;;;;;;;24.80;84.79;99884.56;6159035;23;20432;-86
2022/07/05 14:41:50;;;;;;;3.08;2.55;;;;;;;24.80;82.70;99889.47;6135171;23;20036;-87
2022/07/05 14:44:16;;;;;;;2.50;2.30;;;;;;;24.79;80.30;99894.38;6159523;23;20031;-86
2022/07/05 14:46:41;;;;;;;4.07;2.35;;;;;;;24.90;78.66;99897.09;6185347;23;20010;-85
2022/07/05 14:49:07;;;;;;;2.38;2.17;;;;;;;24.87;80.45;99883.22;6159860;23;20015;-85
2022/07/05 14:51:32;;;;;;;3.15;2.20;;;;;;;25.17;78.98;99895.09;6160253;23;20024;-87
2022/07/05 14:53:58;;;;;;;2.85;2.33;;;;;;;25.16;79.73;99887.13;6161337;23;20009;-87
2022/07/05 14:56:23;;;;;;;2.42;2.20;;;;;;;25.25;77.77;99889.53;6159900;23;20526;-86
2022/07/05 14:58:49;;;;;;;4.82;2.30;;;;;;;25.03;77.51;99879.34;6133893;23;20028;-87
2022/07/05 15:01:15;;;;;;;3.85;2.20;;;;;;;25.13;78.80;99891.81;6135567;23;20066;-86
2022/07/05 15:03:41;;;;;;;3.35;2.30;;;;;;;24.86;77.64;99876.78;6136785;23;20020;-86
2022/07/05 15:06:07;;;;;;;2.78;2.22;;;;;;;24.93;78.90;99886.72;6160053;23;20012;-86
2022/07/05 15:08:32;;;;;;;4.22;2.30;;;;;;;24.39;78.73;99895.47;6135454;23;20028;-86
2022/07/05 15:10:59;;;;;;;3.25;2.60;;;;;;;24.46;80.72;99894.91;6161265;23;20004;-86
2022/07/05 15:13:27;;;;;;;3.50;2.40;;;;;;;24.80;80.01;99895.16;6136215;23;20087;-86